Time;durP1;ratioP1;P1;durP2;ratioP2;P2;SDS_P1;SDS_P2;PMS_P1;PMS_P2;Temp;Humidity;BMP_temperature;BMP_pressure;BME280_temperature;BME280_humidity;BME280_pressure;Samples;Min_cycle;Max_cycle;Signal;HPM_P1;HPM_P2
2023/04/25 00:01:13;;;;;;;21.87;6.77;;;;;;;5.48;100.00;100944.19;5043434;29;20030;-67
2023/04/25 00:03:45;;;;;;;18.93;6.77;;;;;;;5.55;100.00;100945.13;5043425;29;20041;-69
2023/04/25 00:06:17;;;;;;;16.48;6.65;;;;;;;5.55;100.00;100946.00;5043308;29;20042;-69
2023/04/25 00:08:49;;;;;;;18.93;7.17;;;;;;;5.56;100.00;100952.03;5043313;29;20423;-69
2023/04/25 00:11:20;;;;;;;19.10;8.27;;;;;;;5.47;100.00;100945.94;5043408;29;20065;-69
2023/04/25 00:13:51;;;;;;;18.27;8.33;;;;;;;5.38;100.00;100956.16;5042089;29;20038;-68
2023/04/25 00:16:23;;;;;;;19.70;7.40;;;;;;;5.33;100.00;100963.00;5043261;29;20394;-68
2023/04/25 00:18:55;;;;;;;24.60;8.77;;;;;;;5.26;100.00;100963.75;5043097;29;20064;-68
2023/04/25 00:21:26;;;;;;;17.33;6.83;;;;;;;5.22;100.00;100957.69;5043011;29;20034;-68
2023/04/25 00:23:58;;;;;;;21.73;7.43;;;;;;;5.11;100.00;100954.97;5042891;29;20073;-69
2023/04/25 00:26:29;;;;;;;18.70;6.90;;;;;;;5.11;100.00;100960.16;5043195;29;20030;-68
2023/04/25 00:29:00;;;;;;;20.03;7.30;;;;;;;5.13;100.00;100960.16;5043086;29;20068;-68
2023/04/25 00:31:32;;;;;;;19.80;7.23;;;;;;;5.17;100.00;100958.47;5041438;29;20038;-68
2023/04/25 00:34:03;;;;;;;18.13;7.20;;;;;;;5.15;100.00;100952.44;5042745;29;20066;-67
2023/04/25 00:36:35;;;;;;;18.80;6.07;;;;;;;5.14;100.00;100953.31;5042914;29;20042;-69
2023/04/25 00:39:06;;;;;;;17.33;7.23;;;;;;;5.08;100.00;100954.94;5043056;29;20044;-67
2023/04/25 00:41:38;;;;;;;24.03;6.90;;;;;;;5.06;100.00;100948.03;5043034;29;20034;-68
2023/04/25 00:44:11;;;;;;;25.73;6.65;;;;;;;4.98;100.00;100949.66;5042813;29;20038;-67
2023/04/25 00:46:43;;;;;;;17.25;6.78;;;;;;;4.96;100.00;100954.81;5042557;29;20033;-68
2023/04/25 00:49:16;;;;;;;21.90;7.67;;;;;;;4.78;100.00;100939.03;5042977;29;20129;-67
2023/04/25 00:51:48;;;;;;;18.90;6.88;;;;;;;4.81;100.00;100955.44;5042822;29;20100;-68
2023/04/25 00:54:19;;;;;;;19.17;7.73;;;;;;;4.80;100.00;100953.72;5042597;29;20033;-67
2023/04/25 00:56:51;;;;;;;21.93;8.40;;;;;;;4.82;100.00;100952.03;5042696;29;20042;-67
2023/04/25 00:59:23;;;;;;;18.37;7.33;;;;;;;4.85;100.00;100961.53;5042568;29;20049;-68
2023/04/25 01:01:55;;;;;;;19.02;7.70;;;;;;;4.90;100.00;100965.06;5042224;29;20068;-68
2023/04/25 01:04:28;;;;;;;24.03;7.50;;;;;;;4.87;100.00;100959.84;5042682;29;20057;-67
2023/04/25 01:07:00;;;;;;;21.52;9.05;;;;;;;4.92;100.00;100964.19;5042737;29;20470;-68
2023/04/25 01:09:33;;;;;;;25.33;8.50;;;;;;;4.83;100.00;100952.88;5042459;29;20052;-67
2023/04/25 01:12:05;;;;;;;23.80;8.55;;;;;;;4.77;100.00;100965.75;5026149;29;20125;-67
2023/04/25 01:14:36;;;;;;;20.23;7.23;;;;;;;4.66;100.00;100950.09;5026113;29;20478;-68
2023/04/25 01:17:09;;;;;;;17.87;7.67;;;;;;;4.62;100.00;100954.34;5042497;29;20029;-68
2023/04/25 01:19:41;;;;;;;23.50;7.43;;;;;;;4.60;100.00;100965.47;5026111;29;20406;-68
2023/04/25 01:22:12;;;;;;;18.05;6.78;;;;;;;4.55;100.00;100963.69;5042721;29;20034;-67
2023/04/25 01:24:44;;;;;;;17.77;6.57;;;;;;;4.46;100.00;100962.69;5045678;29;20046;-67
2023/04/25 01:27:15;;;;;;;17.13;7.13;;;;;;;4.44;100.00;100962.66;5046133;29;20033;-68
2023/04/25 01:29:47;;;;;;;21.10;8.50;;;;;;;4.41;100.00;100970.34;5046024;29;20478;-67
2023/04/25 01:32:19;;;;;;;23.13;8.20;;;;;;;4.39;100.00;100972.06;5045566;29;20041;-68
2023/04/25 01:34:51;;;;;;;19.88;8.15;;;;;;;4.47;100.00;100962.72;5045957;29;20082;-68
2023/04/25 01:37:22;;;;;;;15.93;7.40;;;;;;;4.47;100.00;100957.53;5046057;29;20038;-67
2023/04/25 01:39:54;;;;;;;17.00;7.47;;;;;;;4.41;100.00;100970.34;5029378;29;20065;-68
2023/04/25 01:42:25;;;;;;;23.07;9.00;;;;;;;4.38;100.00;100978.06;5046003;29;20042;-69
2023/04/25 01:44:57;;;;;;;23.63;7.70;;;;;;;4.37;100.00;100979.78;5045844;29;20453;-69
2023/04/25 01:47:29;;;;;;;19.97;8.27;;;;;;;4.33;100.00;100983.16;5045684;29;20065;-69
2023/04/25 01:50:02;;;;;;;21.23;8.00;;;;;;;4.26;100.00;100978.72;5045935;29;20037;-69
2023/04/25 01:52:34;;;;;;;20.90;7.28;;;;;;;4.21;100.00;100975.22;5045670;29;20121;-69
2023/04/25 01:55:06;;;;;;;24.23;8.93;;;;;;;4.20;100.00;100979.53;5045697;29;20133;-69
2023/04/25 01:57:37;;;;;;;17.38;8.57;;;;;;;4.23;100.00;100981.25;5045756;29;20090;-69
2023/04/25 02:00:10;;;;;;;20.60;8.80;;;;;;;4.29;100.00;100977.94;5045788;29;20036;-70
2023/04/25 02:02:41;;;;;;;21.70;8.88;;;;;;;4.31;100.00;100986.56;5045177;29;20034;-69
2023/04/25 02:05:12;;;;;;;19.63;8.60;;;;;;;4.36;100.00;100995.22;5045665;29;20057;-69
2023/04/25 02:07:44;;;;;;;15.60;8.17;;;;;;;4.41;100.00;100990.16;5029037;29;20093;-69
2023/04/25 02:10:15;;;;;;;22.73;9.03;;;;;;;4.44;100.00;100985.88;5045272;29;20457;-69
2023/04/25 02:12:47;;;;;;;24.83;9.67;;;;;;;4.47;100.00;100998.84;5045532;29;20094;-69
2023/04/25 02:15:18;;;;;;;21.07;9.53;;;;;;;4.47;100.00;100998.84;5044265;29;20037;-69
2023/04/25 02:17:50;;;;;;;22.90;8.43;;;;;;;4.47;100.00;101000.56;5045385;29;20103;-68
2023/04/25 02:20:23;;;;;;;16.93;8.73;;;;;;;4.42;100.00;101002.22;5045146;29;20045;-69
2023/04/25 02:22:54;;;;;;;16.33;8.05;;;;;;;4.43;100.00;101001.34;5045034;29;20037;-69
2023/04/25 02:25:26;;;;;;;30.27;8.87;;;;;;;4.41;100.00;101001.31;5044235;29;20386;-69
2023/04/25 02:27:57;;;;;;;21.73;8.13;;;;;;;4.30;100.00;101003.75;5045297;29;20034;-69
2023/04/25 02:30:28;;;;;;;21.83;9.83;;;;;;;4.24;100.00;100993.31;5044617;29;20376;-69
2023/04/25 02:33:00;;;;;;;26.37;9.00;;;;;;;4.21;100.00;101003.59;5045193;29;20038;-69
2023/04/25 02:35:31;;;;;;;21.97;10.27;;;;;;;4.15;100.00;100998.31;5044137;29;20537;-69
2023/04/25 02:38:02;;;;;;;25.20;8.83;;;;;;;4.10;100.00;100997.38;5028799;29;20125;-69
2023/04/25 02:40:34;;;;;;;22.53;8.77;;;;;;;4.06;100.00;101003.31;5044987;29;20042;-69
2023/04/25 02:43:05;;;;;;;24.30;9.23;;;;;;;3.98;100.00;101000.63;5028334;29;20038;-69
2023/04/25 02:45:37;;;;;;;28.50;9.20;;;;;;;3.95;100.00;101001.44;5043728;29;20034;-69
2023/04/25 02:48:09;;;;;;;23.85;9.35;;;;;;;3.95;100.00;101009.16;5044971;29;20033;-69
2023/04/25 02:50:40;;;;;;;33.33;9.70;;;;;;;3.88;100.00;101007.34;5043322;29;20120;-69
2023/04/25 02:53:11;;;;;;;22.90;8.57;;;;;;;3.88;100.00;100998.72;5044597;29;20440;-69
2023/04/25 02:55:43;;;;;;;21.17;8.43;;;;;;;3.88;100.00;101002.19;5044636;29;20038;-69
2023/04/25 02:58:15;;;;;;;20.43;8.37;;;;;;;3.81;100.00;100997.75;5044492;29;20079;-69
2023/04/25 03:00:46;;;;;;;19.45;8.75;;;;;;;3.81;100.00;100997.75;5043226;29;20222;-68
2023/04/25 03:03:21;;;;;;;20.13;9.60;;;;;;;3.86;100.00;101001.25;5044657;29;20033;-67
2023/04/25 03:05:52;;;;;;;23.83;8.98;;;;;;;3.80;100.00;101002.03;5044383;29;20038;-67
2023/04/25 03:08:25;;;;;;;27.23;9.27;;;;;;;3.77;100.00;100993.38;5044356;29;20094;-67
2023/04/25 03:10:57;;;;;;;23.52;8.55;;;;;;;3.82;100.00;101004.66;5044175;29;20398;-67
2023/04/25 03:13:29;;;;;;;27.38;7.97;;;;;;;3.81;100.00;100993.44;5044506;29;20446;-68
2023/04/25 03:16:01;;;;;;;19.30;8.23;;;;;;;3.81;100.00;101002.91;5027973;29;20041;-67
2023/04/25 03:18:32;;;;;;;24.07;9.50;;;;;;;3.90;100.00;101008.22;5027608;29;20042;-68
2023/04/25 03:21:03;;;;;;;23.33;8.10;;;;;;;3.89;100.00;101005.63;5043884;29;20490;-67
2023/04/25 03:23:35;;;;;;;23.17;8.83;;;;;;;3.89;100.00;101006.47;5044022;29;20493;-67
2023/04/25 03:26:06;;;;;;;26.63;8.70;;;;;;;3.95;100.00;101014.34;5044163;29;20097;-67
2023/04/25 03:28:37;;;;;;;20.37;8.80;;;;;;;3.97;100.00;101015.22;5042524;29;20034;-67
2023/04/25 03:31:09;;;;;;;22.50;7.87;;;;;;;4.05;100.00;101011.91;5043594;29;20140;-67
2023/04/25 03:33:40;;;;;;;28.00;9.10;;;;;;;4.00;100.00;101010.13;5043218;29;20065;-67
2023/04/25 03:36:12;;;;;;;33.63;9.13;;;;;;;3.99;100.00;101005.81;5043676;29;20037;-67
2023/04/25 03:38:43;;;;;;;26.37;9.00;;;;;;;4.04;100.00;101013.63;5043528;29;20041;-68
2023/04/25 03:41:14;;;;;;;27.27;8.13;;;;;;;4.07;100.00;101017.97;5042703;29;20052;-67
2023/04/25 03:43:46;;;;;;;23.67;7.50;;;;;;;4.09;100.00;101008.53;5052004;29;20056;-67
2023/04/25 03:46:17;;;;;;;22.23;8.93;;;;;;;4.09;100.00;101006.84;5062503;29;20093;-67
2023/04/25 03:48:48;;;;;;;19.30;7.50;;;;;;;4.12;100.00;101011.16;5062610;29;20033;-67
2023/04/25 03:51:20;;;;;;;27.03;8.10;;;;;;;4.09;100.00;101008.53;5062539;29;20044;-67
2023/04/25 03:53:52;;;;;;;20.03;8.50;;;;;;;4.14;100.00;101012.09;5062608;29;20040;-68
2023/04/25 03:56:23;;;;;;;27.57;8.40;;;;;;;4.14;100.00;101018.13;5062577;29;20096;-68
2023/04/25 03:58:54;;;;;;;18.83;7.33;;;;;;;4.11;100.00;101020.63;5062501;29;20074;-68
2023/04/25 04:01:26;;;;;;;26.63;8.60;;;;;;;4.16;100.00;101016.41;5062331;29;20080;-68
2023/04/25 04:03:57;;;;;;;16.27;7.70;;;;;;;4.15;100.00;101016.38;5062408;29;20033;-68
2023/04/25 04:06:29;;;;;;;21.97;8.20;;;;;;;4.14;100.00;101028.44;5062468;29;20073;-68
2023/04/25 04:09:01;;;;;;;17.67;8.82;;;;;;;4.13;100.00;101025.81;5062519;29;20033;-68
2023/04/25 04:11:32;;;;;;;23.13;7.97;;;;;;;4.12;100.00;101029.22;5045762;29;20524;-69
2023/04/25 04:14:10;;;;;;;23.50;7.93;;;;;;;4.13;100.00;101036.16;5062121;29;20454;-67
2023/04/25 04:16:41;;;;;;;23.75;8.20;;;;;;;4.14;100.00;101037.91;5045494;29;20037;-68
2023/04/25 04:19:13;;;;;;;23.37;7.63;;;;;;;4.15;100.00;101037.91;5062359;29;20453;-68
2023/04/25 04:21:44;;;;;;;25.30;8.37;;;;;;;4.18;100.00;101039.66;5045469;29;20042;-68
2023/04/25 04:24:16;;;;;;;22.43;7.03;;;;;;;4.19;100.00;101044.00;5062388;29;20041;-68
2023/04/25 04:26:48;;;;;;;32.92;8.05;;;;;;;4.20;100.00;101049.19;5062261;29;20534;-68
2023/04/25 04:29:20;;;;;;;21.53;7.63;;;;;;;4.19;100.00;101044.84;5062059;29;20128;-67
2023/04/25 04:31:52;;;;;;;24.17;8.75;;;;;;;4.22;100.00;101045.75;5061537;29;20078;-68
2023/04/25 04:34:24;;;;;;;27.27;7.90;;;;;;;4.27;100.00;101054.47;5061511;29;20061;-67
2023/04/25 04:36:56;;;;;;;23.05;7.32;;;;;;;4.27;100.00;101046.72;5061806;29;20046;-67
2023/04/25 04:39:27;;;;;;;26.13;7.43;;;;;;;4.26;100.00;101055.28;5061744;29;20040;-67
2023/04/25 04:42:01;;;;;;;23.63;8.07;;;;;;;4.28;100.00;101049.31;5061577;29;20038;-67
2023/04/25 04:44:32;;;;;;;28.00;9.35;;;;;;;4.29;100.00;101045.88;5061820;29;20037;-68
2023/04/25 04:47:06;;;;;;;22.47;7.93;;;;;;;4.32;100.00;101052.81;5061899;29;20048;-67
2023/04/25 04:49:37;;;;;;;23.58;7.60;;;;;;;4.35;100.00;101058.03;5061758;29;20419;-68
2023/04/25 04:52:08;;;;;;;23.43;7.10;;;;;;;4.35;100.00;101065.78;5053436;29;20093;-68
2023/04/25 04:54:40;;;;;;;24.73;7.03;;;;;;;4.33;100.00;101070.03;5041229;29;20554;-68
2023/04/25 04:57:11;;;;;;;26.90;8.70;;;;;;;4.25;100.00;101064.75;5041711;29;20069;-68
2023/04/25 04:59:42;;;;;;;24.43;8.23;;;;;;;4.20;100.00;101063.78;5044462;29;20483;-68
2023/04/25 05:02:14;;;;;;;20.57;6.83;;;;;;;4.20;100.00;101074.09;5045886;29;20034;-68
2023/04/25 05:04:45;;;;;;;16.70;6.70;;;;;;;4.31;100.00;101076.88;5045843;29;20569;-68
2023/04/25 05:07:17;;;;;;;26.47;7.43;;;;;;;4.36;100.00;101080.41;5046591;29;20117;-68
2023/04/25 05:09:48;;;;;;;22.30;7.60;;;;;;;4.43;100.00;101087.44;5046026;29;20034;-68
2023/04/25 05:12:19;;;;;;;26.13;8.30;;;;;;;4.51;100.00;101090.16;5029557;29;20038;-68
2023/04/25 05:14:51;;;;;;;21.20;7.80;;;;;;;4.55;100.00;101095.34;5046376;29;20382;-68
2023/04/25 05:17:22;;;;;;;22.87;7.03;;;;;;;4.59;100.00;101104.06;5046027;29;20032;-68
2023/04/25 05:19:53;;;;;;;26.27;8.97;;;;;;;4.62;100.00;101100.63;5046388;29;20107;-68
2023/04/25 05:22:25;;;;;;;23.63;9.23;;;;;;;4.66;100.00;101108.47;5045993;29;20048;-68
2023/04/25 05:24:56;;;;;;;26.23;8.40;;;;;;;4.73;100.00;101109.41;5045951;29;20073;-68
2023/04/25 05:27:27;;;;;;;22.73;9.03;;;;;;;4.73;100.00;101117.16;5046261;29;20064;-68
2023/04/25 05:29:59;;;;;;;24.00;8.47;;;;;;;4.79;100.00;101113.84;5046019;29;20037;-68
2023/04/25 05:32:31;;;;;;;19.63;7.23;;;;;;;4.87;100.00;101114.81;5045704;29;20116;-68
2023/04/25 05:35:02;;;;;;;23.63;7.23;;;;;;;4.91;100.00;101114.00;5045611;29;20110;-68
2023/04/25 05:37:34;;;;;;;23.77;7.00;;;;;;;4.97;100.00;101119.28;5045904;29;20102;-68
2023/04/25 05:40:06;;;;;;;24.80;8.67;;;;;;;5.01;100.00;101117.63;5045822;29;20080;-68
2023/04/25 05:42:38;;;;;;;18.00;7.57;;;;;;;5.09;100.00;101123.78;5045975;29;20038;-68
2023/04/25 05:45:09;;;;;;;23.43;6.70;;;;;;;5.16;100.00;101123.00;5045566;29;20040;-68
2023/04/25 05:47:41;;;;;;;22.00;6.60;;;;;;;5.22;100.00;101117.09;5045828;29;20444;-69
2023/04/25 05:50:12;;;;;;;22.83;8.33;;;;;;;5.32;100.00;101133.59;5045887;29;20046;-68
2023/04/25 05:52:43;;;;;;;22.67;7.10;;;;;;;5.33;100.00;101127.56;5045579;29;20113;-68
2023/04/25 05:55:15;;;;;;;21.97;7.67;;;;;;;5.39;99.91;101138.00;5028931;29;20095;-68
2023/04/25 05:57:46;;;;;;;27.37;8.23;;;;;;;5.46;99.90;101139.81;5045324;29;20069;-68
2023/04/25 06:00:18;;;;;;;24.07;8.63;;;;;;;5.46;99.20;101148.44;5045937;29;20098;-68
2023/04/25 06:02:50;;;;;;;17.47;6.50;;;;;;;5.56;99.21;101152.03;5045099;29;20057;-68
2023/04/25 06:05:21;;;;;;;21.23;7.70;;;;;;;5.60;98.59;101153.81;5045461;29;20283;-68
2023/04/25 06:07:52;;;;;;;23.87;7.23;;;;;;;5.62;98.42;101153.84;5045557;29;20034;-68
2023/04/25 06:10:24;;;;;;;19.30;7.83;;;;;;;5.64;98.65;101157.31;5045505;29;20086;-68
2023/04/25 06:12:55;;;;;;;19.07;5.87;;;;;;;5.72;98.98;101154.81;5045545;29;20470;-68
2023/04/25 06:15:27;;;;;;;23.70;6.97;;;;;;;5.76;99.19;101166.94;5045392;29;20038;-68
2023/04/25 06:17:58;;;;;;;23.07;6.43;;;;;;;5.82;98.91;101156.69;5045116;29;20033;-68
2023/04/25 06:20:30;;;;;;;20.10;6.87;;;;;;;5.86;97.80;101168.81;5045148;29;20045;-68
2023/04/25 06:23:01;;;;;;;16.50;6.27;;;;;;;5.86;97.78;101166.22;5045085;29;20064;-68
2023/04/25 06:25:32;;;;;;;14.77;6.37;;;;;;;5.89;97.53;101171.41;5045235;29;20447;-68
2023/04/25 06:28:04;;;;;;;19.87;6.27;;;;;;;5.85;96.31;101170.50;5045207;29;20045;-68
2023/04/25 06:30:35;;;;;;;17.10;6.07;;;;;;;5.83;95.57;101173.94;5045016;29;20045;-68
2023/04/25 06:33:08;;;;;;;13.40;5.20;;;;;;;5.79;94.90;101169.56;5044481;29;20042;-68
2023/04/25 06:35:39;;;;;;;30.75;8.02;;;;;;;5.73;93.91;101170.38;5044817;29;20066;-68
2023/04/25 06:38:11;;;;;;;18.27;5.33;;;;;;;5.80;93.98;101169.59;5045074;29;20041;-68
2023/04/25 06:40:42;;;;;;;12.97;4.80;;;;;;;5.82;92.03;101178.22;5044765;29;20061;-68
2023/04/25 06:43:13;;;;;;;19.27;5.00;;;;;;;5.85;89.59;101182.59;5044606;29;20505;-68
2023/04/25 06:45:45;;;;;;;13.27;3.50;;;;;;;5.84;86.92;101188.59;5044658;29;20048;-68
2023/04/25 06:48:16;;;;;;;10.27;2.87;;;;;;;5.83;87.42;101185.16;5045123;29;20034;-68
2023/04/25 06:50:47;;;;;;;12.07;3.43;;;;;;;5.90;85.35;101193.00;5028199;29;20498;-68
2023/04/25 06:53:19;;;;;;;15.03;3.70;;;;;;;5.90;84.18;101203.34;5044624;29;20090;-68
2023/04/25 06:55:50;;;;;;;16.23;4.13;;;;;;;5.98;83.67;101205.22;5044451;29;20034;-67
2023/04/25 06:58:22;;;;;;;10.20;3.17;;;;;;;6.05;82.39;101197.53;5044283;29;20064;-67
2023/04/25 07:00:53;;;;;;;10.97;2.90;;;;;;;6.08;80.10;101198.44;5043871;29;20040;-67
2023/04/25 07:03:25;;;;;;;13.27;3.70;;;;;;;6.15;79.83;101189.00;5044646;29;20045;-67
2023/04/25 07:05:56;;;;;;;15.60;3.13;;;;;;;6.25;79.77;101193.47;5044222;29;20130;-67
2023/04/25 07:08:29;;;;;;;13.17;4.23;;;;;;;6.18;78.46;101197.72;5027960;29;20129;-67
2023/04/25 07:11:00;;;;;;;13.43;4.15;;;;;;;6.35;80.62;101200.47;5044278;29;20079;-67
2023/04/25 07:13:32;;;;;;;17.33;3.87;;;;;;;6.35;78.84;101195.28;5027847;29;20126;-67
2023/04/25 07:16:03;;;;;;;13.93;3.53;;;;;;;6.42;77.90;101201.41;5043984;29;20057;-67
2023/04/25 07:18:35;;;;;;;9.73;3.33;;;;;;;6.57;77.61;101201.59;5043964;29;20191;-67
2023/04/25 07:21:06;;;;;;;15.53;3.30;;;;;;;6.74;78.62;101206.91;5027192;29;20038;-67
2023/04/25 07:23:40;;;;;;;9.07;3.00;;;;;;;6.75;74.87;101220.75;5043944;29;20121;-67
2023/04/25 07:26:12;;;;;;;11.80;3.97;;;;;;;6.93;76.41;101222.66;5043871;29;20042;-67
2023/04/25 07:28:43;;;;;;;12.83;4.30;;;;;;;7.06;75.48;101213.25;5043810;29;20030;-67
2023/04/25 07:31:17;;;;;;;12.83;3.30;;;;;;;7.20;73.67;101224.63;5043523;29;20113;-67
2023/04/25 07:33:48;;;;;;;9.25;2.70;;;;;;;7.09;69.29;101229.72;5043483;29;20471;-67
2023/04/25 07:36:20;;;;;;;11.53;2.77;;;;;;;7.18;70.17;101225.44;5043786;29;20037;-67
2023/04/25 07:38:52;;;;;;;10.20;2.65;;;;;;;7.20;71.78;101232.41;5043824;29;20038;-67
2023/04/25 07:41:23;;;;;;;8.33;3.20;;;;;;;7.33;70.77;101228.19;5043689;29;20041;-68
2023/04/25 07:43:54;;;;;;;10.80;2.97;;;;;;;7.42;70.54;101237.75;5043732;29;20525;-67
2023/04/25 07:46:26;;;;;;;11.93;4.43;;;;;;;7.46;70.13;101247.28;5011950;29;20187;-67
2023/04/25 07:48:57;;;;;;;12.20;4.07;;;;;;;7.71;70.68;101245.75;5043357;29;20409;-67
2023/04/25 07:51:29;;;;;;;11.87;2.83;;;;;;;7.84;69.35;101252.75;5027310;29;20117;-67
2023/04/25 07:54:00;;;;;;;10.63;2.40;;;;;;;8.21;68.87;101252.03;5043443;29;20073;-67
2023/04/25 07:56:31;;;;;;;7.23;2.33;;;;;;;8.71;66.91;101245.31;5043276;29;20042;-67
2023/04/25 07:59:03;;;;;;;9.27;2.83;;;;;;;8.84;64.50;101254.91;5043406;29;20101;-66
2023/04/25 08:01:34;;;;;;;15.90;4.07;;;;;;;8.65;63.37;101264.38;5042884;29;20057;-67
2023/04/25 08:04:06;;;;;;;10.53;3.33;;;;;;;8.60;64.01;101253.09;5043297;29;20405;-66
2023/04/25 08:06:37;;;;;;;7.87;3.27;;;;;;;8.75;63.28;101255.72;5043106;29;20041;-66
2023/04/25 08:09:09;;;;;;;9.73;3.33;;;;;;;8.78;62.41;101248.81;5042981;29;20034;-66
2023/04/25 08:11:41;;;;;;;7.23;2.67;;;;;;;8.89;62.66;101271.38;5043240;29;20030;-66
2023/04/25 08:14:13;;;;;;;15.23;4.75;;;;;;;9.13;62.37;101267.06;5043326;29;20026;-66
2023/04/25 08:16:44;;;;;;;20.73;3.23;;;;;;;9.04;61.89;101275.72;5042914;29;20029;-67
2023/04/25 08:19:16;;;;;;;12.33;2.90;;;;;;;8.96;63.35;101271.38;5042781;29;20099;-66
2023/04/25 08:21:47;;;;;;;10.77;2.47;;;;;;;8.79;63.09;101279.13;5042950;29;20042;-66
2023/04/25 08:24:19;;;;;;;12.67;3.87;;;;;;;8.59;62.02;101287.75;5042929;29;20085;-66
2023/04/25 08:26:51;;;;;;;14.27;4.43;;;;;;;8.63;63.89;101281.72;5042768;29;20534;-67
2023/04/25 08:29:24;;;;;;;13.65;3.08;;;;;;;8.58;63.79;101294.69;5042775;29;20062;-67
2023/04/25 08:31:56;;;;;;;11.15;2.83;;;;;;;8.61;64.23;101290.34;5025806;29;20482;-67
2023/04/25 08:34:27;;;;;;;12.13;3.65;;;;;;;8.96;64.27;101297.38;5041934;29;20066;-67
2023/04/25 08:36:59;;;;;;;15.97;4.23;;;;;;;9.29;63.14;101301.78;5042665;29;20034;-67
2023/04/25 08:39:31;;;;;;;15.83;3.50;;;;;;;9.11;61.22;101313.88;5042706;29;20097;-66
2023/04/25 08:42:09;;;;;;;12.70;2.87;;;;;;;9.26;60.86;101312.19;5042694;29;20034;-67
2023/04/25 08:44:41;;;;;;;13.85;3.08;;;;;;;9.34;62.61;101310.44;5042964;29;20072;-67
2023/04/25 08:47:12;;;;;;;12.03;2.90;;;;;;;9.63;61.08;101305.25;5042554;29;20038;-67
2023/04/25 08:49:46;;;;;;;14.70;3.87;;;;;;;10.19;63.22;101316.44;5042933;29;20406;-67
2023/04/25 08:52:24;;;;;;;12.80;3.88;;;;;;;9.51;58.87;101320.00;5042820;29;20488;-67
2023/04/25 08:54:57;;;;;;;10.02;3.20;;;;;;;9.62;60.85;101313.91;5042377;29;20041;-67
2023/04/25 08:57:30;;;;;;;14.52;3.80;;;;;;;9.81;60.48;101322.56;5042833;29;20368;-67
2023/04/25 09:00:03;;;;;;;8.63;2.60;;;;;;;9.93;62.40;101328.63;5042467;29;20531;-67
2023/04/25 09:02:35;;;;;;;12.27;3.55;;;;;;;9.88;57.29;101339.06;5042342;29;20487;-67
2023/04/25 09:05:09;;;;;;;9.30;2.85;;;;;;;10.29;61.64;101345.06;5042721;29;20046;-66
2023/04/25 09:07:41;;;;;;;12.57;2.90;;;;;;;10.32;57.78;101359.00;5042457;29;20113;-67
2023/04/25 09:10:12;;;;;;;11.27;3.20;;;;;;;10.51;57.45;101369.34;5042956;29;20079;-67
2023/04/25 09:12:44;;;;;;;11.03;2.70;;;;;;;10.92;57.80;101355.31;5042276;29;20030;-67
2023/04/25 09:15:15;;;;;;;12.13;3.40;;;;;;;10.31;55.58;101379.81;5042365;29;20106;-66
2023/04/25 09:17:55;;;;;;;8.83;2.60;;;;;;;9.87;54.97;101376.41;5042145;29;20041;-66
2023/04/25 09:20:28;;;;;;;11.55;2.85;;;;;;;10.04;52.85;101378.97;5042647;29;20030;-66
2023/04/25 09:23:04;;;;;;;8.20;2.10;;;;;;;10.36;53.12;101380.69;5042419;29;20117;-67
2023/04/25 09:25:38;;;;;;;7.60;2.20;;;;;;;10.82;52.35;101377.94;5042186;29;20038;-67
2023/04/25 09:28:11;;;;;;;10.82;2.60;;;;;;;10.74;51.52;101388.41;5042758;29;20534;-67
2023/04/25 09:30:42;;;;;;;8.82;2.45;;;;;;;10.58;50.88;101386.72;5042142;29;20037;-67
2023/04/25 09:33:13;;;;;;;8.63;2.20;;;;;;;10.78;49.74;101397.06;5025604;29;20042;-67
2023/04/25 09:35:45;;;;;;;8.20;2.27;;;;;;;10.69;49.68;101381.47;5025815;29;20421;-67
2023/04/25 09:38:18;;;;;;;11.33;2.97;;;;;;;10.84;50.28;101389.22;5026040;29;20498;-67
2023/04/25 09:40:51;;;;;;;7.28;2.53;;;;;;;10.90;50.24;101388.31;5042427;29;20065;-67
2023/04/25 09:43:24;;;;;;;10.50;2.88;;;;;;;11.29;50.73;101382.03;5042193;29;20037;-67
2023/04/25 09:45:58;;;;;;;4.97;2.38;;;;;;;11.76;48.40;101374.75;5045376;29;20098;-67
2023/04/25 09:48:30;;;;;;;8.95;2.60;;;;;;;12.10;47.95;101378.84;5045973;29;20034;-67
2023/04/25 09:51:09;;;;;;;8.13;2.23;;;;;;;12.49;47.55;101389.75;5045528;29;20481;-67
2023/04/25 09:53:42;;;;;;;9.93;2.78;;;;;;;12.29;47.62;101385.63;5045627;29;20034;-67
2023/04/25 09:56:14;;;;;;;11.20;2.97;;;;;;;12.60;49.50;101385.28;5045365;29;20042;-67
2023/04/25 09:58:47;;;;;;;5.43;2.63;;;;;;;12.69;45.94;101382.56;5045471;29;20087;-67
2023/04/25 10:01:20;;;;;;;7.03;2.58;;;;;;;12.03;46.76;101388.50;5045208;29;20041;-67
2023/04/25 10:03:56;;;;;;;10.40;2.67;;;;;;;11.21;46.12;101402.09;5028837;29;20166;-67
2023/04/25 10:06:29;;;;;;;7.13;2.60;;;;;;;10.64;48.54;101402.34;5045856;29;20036;-67
2023/04/25 10:09:01;;;;;;;8.98;2.45;;;;;;;10.58;48.03;101392.81;5045163;29;20036;-67
2023/04/25 10:11:32;;;;;;;10.60;2.95;;;;;;;12.10;46.54;101394.53;5045274;29;20044;-67
2023/04/25 10:14:05;;;;;;;8.27;2.30;;;;;;;12.94;43.57;101388.34;5045032;29;20042;-67
2023/04/25 10:16:38;;;;;;;7.22;1.92;;;;;;;13.23;41.02;101389.69;5028615;29;20140;-68
2023/04/25 10:19:10;;;;;;;6.55;2.10;;;;;;;12.38;42.15;101388.13;5045306;29;20117;-68
2023/04/25 10:22:02;;;;;;;5.20;1.90;;;;;;;13.53;42.24;101378.84;5029237;29;20042;-68
2023/04/25 10:24:36;;;;;;;3.75;1.85;;;;;;;14.15;37.50;101384.78;5030329;29;20089;-67
2023/04/25 10:27:08;;;;;;;6.70;2.20;;;;;;;15.96;37.51;101391.44;5045262;29;20042;-67
2023/04/25 10:29:43;;;;;;;4.43;1.50;;;;;;;15.91;36.17;101381.03;5045644;29;20382;-67
2023/04/25 10:32:14;;;;;;;6.20;1.88;;;;;;;14.86;36.34;101385.16;5045119;29;20371;-66
2023/04/25 10:34:48;;;;;;;7.43;2.10;;;;;;;14.88;37.07;101388.66;5045477;29;20101;-66
2023/04/25 10:37:20;;;;;;;9.70;2.33;;;;;;;13.97;36.34;101392.94;5045780;29;20041;-67
2023/04/25 10:39:53;;;;;;;7.33;2.33;;;;;;;13.90;37.53;101393.97;5045915;29;20063;-65
2023/04/25 10:42:24;;;;;;;5.90;2.17;;;;;;;13.11;38.91;101400.34;5045705;29;20076;-66
2023/04/25 10:45:05;;;;;;;7.67;2.43;;;;;;;12.84;39.50;101407.66;5046478;29;20073;-66
2023/04/25 10:47:44;;;;;;;6.78;2.53;;;;;;;12.45;40.89;101399.38;5046532;29;20375;-66
2023/04/25 10:50:16;;;;;;;10.85;2.63;;;;;;;13.59;40.39;101390.09;5048011;29;20070;-66
2023/04/25 10:52:47;;;;;;;8.33;2.67;;;;;;;14.10;36.43;101404.94;5050617;29;20086;-66
2023/04/25 10:55:20;;;;;;;6.67;2.77;;;;;;;14.49;38.33;101391.13;5050577;29;20062;-68
2023/04/25 10:57:51;;;;;;;5.97;2.28;;;;;;;15.64;38.42;101391.28;5050317;29;20029;-66
2023/04/25 11:00:26;;;;;;;8.23;3.00;;;;;;;16.01;36.53;101393.03;5052336;29;20045;-66
2023/04/25 11:02:59;;;;;;;7.22;1.95;;;;;;;16.00;35.01;101393.94;5057216;29;20049;-67
2023/04/25 11:05:35;;;;;;;6.60;2.55;;;;;;;14.04;36.80;101384.97;5056678;29;20383;-67
2023/04/25 11:08:11;;;;;;;6.90;2.28;;;;;;;12.98;40.07;101396.16;5058484;29;20041;-66
2023/04/25 11:10:44;;;;;;;6.40;2.25;;;;;;;12.36;43.08;101399.47;5043670;29;20038;-66
2023/04/25 11:13:15;;;;;;;6.88;2.30;;;;;;;11.50;43.90;101407.13;5060847;29;20069;-66
2023/04/25 11:15:51;;;;;;;5.00;1.87;;;;;;;11.25;44.89;101410.78;5043792;29;20046;-65
2023/04/25 11:18:26;;;;;;;8.68;2.78;;;;;;;10.85;47.30;101414.44;5058103;29;20034;-66
2023/04/25 11:20:58;;;;;;;9.10;2.55;;;;;;;10.18;49.22;101421.50;5059714;29;20048;-66
2023/04/25 11:23:30;;;;;;;6.97;2.17;;;;;;;9.58;52.36;101415.41;5060114;29;20022;-65
2023/04/25 11:26:02;;;;;;;6.28;1.73;;;;;;;9.49;53.87;101422.34;5059305;29;20044;-66
2023/04/25 11:28:34;;;;;;;7.15;2.40;;;;;;;9.17;54.24;101426.59;5058653;29;20033;-68
2023/04/25 11:31:05;;;;;;;6.97;3.20;;;;;;;9.28;57.03;101435.31;5053479;29;20076;-65
2023/04/25 11:33:37;;;;;;;5.13;2.13;;;;;;;9.31;55.56;101435.31;5054458;29;20039;-66
2023/04/25 11:36:09;;;;;;;8.27;2.00;;;;;;;9.59;53.94;101437.97;5029181;29;20085;-65
2023/04/25 11:38:41;;;;;;;6.63;1.88;;;;;;;9.60;51.85;101434.53;5045357;29;20038;-67
2023/04/25 11:41:12;;;;;;;5.63;2.28;;;;;;;10.03;51.71;101445.00;5045095;29;20045;-66
2023/04/25 11:43:44;;;;;;;6.03;1.70;;;;;;;11.64;48.28;101441.00;5044229;29;20030;-66